BAW9171 EGLL-EGFF
Flight info
| Callsign | BAW9171 |
|---|---|
| Flight time | 0h 29m |
| Altitude | 15000 |
| Route | CPT5J CPT Q63 ICTAM ICTAM2C |
| Aircraft | B789/H-SADE1E2E3FGHIJ1J3J4J5J6LM1M2OP2RWXYZ/LB1D1G1 |
Departure
| Time | 2026-05-05 18:46 |
|---|---|
| Airport | London Heathrow Airport (EGLL) |
Arrival
| Time | 2026-05-05 19:15 |
|---|---|
| Airport | Cardiff International Airport (EGFF) |
| Time | Latitude | Longitude | Altitude | Speed | Heading |
|---|---|---|---|---|---|
| 2026-05-05 18:19 | 51.47047 | -0.47199 | 94 ft | 0 kts | 90° |
| 2026-05-05 18:37 | 51.47046 | -0.47229 | 94 ft | 4 kts | 90° |
| 2026-05-05 18:37 | 51.47046 | -0.47272 | 93 ft | 4 kts | 90° |
| 2026-05-05 18:37 | 51.47046 | -0.47313 | 93 ft | 4 kts | 102° |
| 2026-05-05 18:37 | 51.47055 | -0.47342 | 93 ft | 4 kts | 145° |
| 2026-05-05 18:38 | 51.47072 | -0.47352 | 93 ft | 1 kts | 180° |
| 2026-05-05 18:38 | 51.47096 | -0.47352 | 92 ft | 4 kts | 180° |
| 2026-05-05 18:38 | 51.47102 | -0.47352 | 92 ft | 0 kts | 180° |
| 2026-05-05 18:40 | 51.47096 | -0.47352 | 92 ft | 3 kts | 180° |
| 2026-05-05 18:40 | 51.47061 | -0.47352 | 92 ft | 7 kts | 180° |
| 2026-05-05 18:41 | 51.46995 | -0.47351 | 92 ft | 12 kts | 180° |
| 2026-05-05 18:41 | 51.46898 | -0.47350 | 92 ft | 16 kts | 180° |
| 2026-05-05 18:41 | 51.46773 | -0.47349 | 92 ft | 20 kts | 179° |
| 2026-05-05 18:41 | 51.46682 | -0.47354 | 94 ft | 4 kts | 206° |
| 2026-05-05 18:42 | 51.46661 | -0.47402 | 96 ft | 6 kts | 252° |
| 2026-05-05 18:42 | 51.46654 | -0.47495 | 92 ft | 10 kts | 270° |
| 2026-05-05 18:42 | 51.46655 | -0.47634 | 92 ft | 14 kts | 270° |
| 2026-05-05 18:42 | 51.46654 | -0.47816 | 92 ft | 18 kts | 270° |
| 2026-05-05 18:43 | 51.46654 | -0.48037 | 92 ft | 21 kts | 270° |
| 2026-05-05 18:43 | 51.46653 | -0.48287 | 92 ft | 22 kts | 270° |
| 2026-05-05 18:43 | 51.46650 | -0.48418 | 93 ft | 8 kts | 252° |
| 2026-05-05 18:43 | 51.46619 | -0.48459 | 95 ft | 3 kts | 196° |
| 2026-05-05 18:44 | 51.46609 | -0.48463 | 94 ft | 0 kts | 191° |
| 2026-05-05 18:44 | 51.46606 | -0.48463 | 95 ft | 2 kts | 190° |
| 2026-05-05 18:45 | 51.46579 | -0.48465 | 95 ft | 6 kts | 180° |
| 2026-05-05 18:45 | 51.46523 | -0.48462 | 94 ft | 10 kts | 169° |
| 2026-05-05 18:45 | 51.46484 | -0.48404 | 94 ft | 7 kts | 104° |
| 2026-05-05 18:45 | 51.46479 | -0.48242 | 94 ft | 37 kts | 90° |
| 2026-05-05 18:46 | 51.46482 | -0.47381 | 92 ft | 117 kts | 90° |
| 2026-05-05 18:46 | 51.46480 | -0.45722 | 357 ft | 162 kts | 85° |
| 2026-05-05 18:46 | 51.46469 | -0.43898 | 1291 ft | 166 kts | 90° |
| 2026-05-05 18:46 | 51.46457 | -0.42026 | 2188 ft | 168 kts | 88° |
| 2026-05-05 18:47 | 51.46293 | -0.40136 | 2762 ft | 186 kts | 109° |
| 2026-05-05 18:47 | 51.45300 | -0.38650 | 2999 ft | 219 kts | 153° |
| 2026-05-05 18:47 | 51.43690 | -0.38473 | 3339 ft | 249 kts | 193° |
| 2026-05-05 18:47 | 51.42123 | -0.39843 | 3886 ft | 266 kts | 216° |
| 2026-05-05 18:48 | 51.40671 | -0.41746 | 4325 ft | 268 kts | 225° |
| 2026-05-05 18:48 | 51.39806 | -0.44400 | 4720 ft | 272 kts | 260° |
| 2026-05-05 18:48 | 51.39911 | -0.47349 | 5172 ft | 265 kts | 285° |
| 2026-05-05 18:48 | 51.40427 | -0.50196 | 5741 ft | 267 kts | 289° |
| 2026-05-05 18:49 | 51.41012 | -0.53021 | 6288 ft | 267 kts | 290° |
| 2026-05-05 18:49 | 51.41614 | -0.55852 | 6812 ft | 270 kts | 290° |
| 2026-05-05 18:49 | 51.42223 | -0.58698 | 7318 ft | 271 kts | 290° |
| 2026-05-05 18:49 | 51.42841 | -0.61573 | 7834 ft | 273 kts | 291° |
| 2026-05-05 18:50 | 51.43464 | -0.64473 | 8352 ft | 276 kts | 290° |
| 2026-05-05 18:50 | 51.44094 | -0.67392 | 8894 ft | 277 kts | 290° |
| 2026-05-05 18:50 | 51.44732 | -0.70331 | 9427 ft | 280 kts | 290° |
| 2026-05-05 18:50 | 51.45376 | -0.73282 | 9949 ft | 282 kts | 290° |
| 2026-05-05 18:51 | 51.45991 | -0.76280 | 10419 ft | 285 kts | 287° |
| 2026-05-05 18:51 | 51.46520 | -0.79369 | 10913 ft | 299 kts | 286° |
| 2026-05-05 18:51 | 51.47067 | -0.82692 | 11438 ft | 317 kts | 285° |
| 2026-05-05 18:51 | 51.47646 | -0.86208 | 11974 ft | 334 kts | 285° |
| 2026-05-05 18:52 | 51.48254 | -0.89897 | 12522 ft | 349 kts | 286° |
| 2026-05-05 18:52 | 51.48882 | -0.93695 | 13071 ft | 356 kts | 286° |
| 2026-05-05 18:52 | 51.49519 | -0.97550 | 13631 ft | 359 kts | 285° |
| 2026-05-05 18:52 | 51.50166 | -1.01425 | 14132 ft | 360 kts | 285° |
| 2026-05-05 18:53 | 51.50819 | -1.05316 | 14564 ft | 365 kts | 285° |
| 2026-05-05 18:53 | 51.51483 | -1.09262 | 14833 ft | 365 kts | 285° |
| 2026-05-05 18:53 | 51.52149 | -1.13220 | 14932 ft | 369 kts | 285° |
| 2026-05-05 18:53 | 51.52823 | -1.17199 | 14931 ft | 367 kts | 285° |
| 2026-05-05 18:54 | 51.53403 | -1.21177 | 14935 ft | 367 kts | 282° |
| 2026-05-05 18:54 | 51.53911 | -1.25203 | 14930 ft | 368 kts | 281° |
| 2026-05-05 18:54 | 51.54394 | -1.29251 | 14928 ft | 368 kts | 281° |
| 2026-05-05 18:54 | 51.54865 | -1.33280 | 14930 ft | 366 kts | 281° |
| 2026-05-05 18:55 | 51.55333 | -1.37304 | 14931 ft | 368 kts | 281° |
| 2026-05-05 18:55 | 51.55792 | -1.41279 | 14931 ft | 364 kts | 281° |
| 2026-05-05 18:55 | 51.56256 | -1.45294 | 14950 ft | 367 kts | 281° |
| 2026-05-05 18:55 | 51.56716 | -1.49286 | 14954 ft | 362 kts | 280° |
| 2026-05-05 18:56 | 51.57173 | -1.53255 | 14954 ft | 359 kts | 280° |
| 2026-05-05 18:56 | 51.57630 | -1.57227 | 14962 ft | 364 kts | 280° |
| 2026-05-05 18:56 | 51.58088 | -1.61225 | 14964 ft | 363 kts | 280° |
| 2026-05-05 18:56 | 51.58397 | -1.63924 | 14968 ft | 363 kts | 280° |
| 2026-05-05 18:57 | 51.58842 | -1.67835 | 14965 ft | 359 kts | 280° |
| 2026-05-05 18:57 | 51.59213 | -1.71859 | 14967 ft | 362 kts | 277° |
| 2026-05-05 18:57 | 51.59520 | -1.75843 | 14967 ft | 357 kts | 277° |
| 2026-05-05 18:57 | 51.59809 | -1.79848 | 14968 ft | 363 kts | 276° |
| 2026-05-05 18:58 | 51.60091 | -1.83862 | 14968 ft | 360 kts | 276° |
| 2026-05-05 18:58 | 51.60369 | -1.87866 | 14967 ft | 365 kts | 276° |
| 2026-05-05 18:58 | 51.60650 | -1.91922 | 14974 ft | 360 kts | 276° |
| 2026-05-05 18:58 | 51.60927 | -1.95937 | 14977 ft | 356 kts | 276° |
| 2026-05-05 18:59 | 51.61201 | -1.99919 | 14981 ft | 361 kts | 276° |
| 2026-05-05 18:59 | 51.61471 | -2.03856 | 14976 ft | 357 kts | 276° |
| 2026-05-05 18:59 | 51.61528 | -2.07816 | 14947 ft | 358 kts | 263° |
| 2026-05-05 18:59 | 51.60758 | -2.11660 | 14955 ft | 361 kts | 245° |
| 2026-05-05 19:00 | 51.59460 | -2.15137 | 14980 ft | 365 kts | 237° |
| 2026-05-05 19:00 | 51.57995 | -2.18444 | 14988 ft | 362 kts | 235° |
| 2026-05-05 19:00 | 51.56447 | -2.21631 | 14989 ft | 363 kts | 231° |
| 2026-05-05 19:00 | 51.54749 | -2.24637 | 14986 ft | 362 kts | 227° |
| 2026-05-05 19:01 | 51.53057 | -2.27459 | 14743 ft | 342 kts | 227° |
| 2026-05-05 19:01 | 51.51415 | -2.30132 | 14337 ft | 329 kts | 227° |
| 2026-05-05 19:01 | 51.49836 | -2.32685 | 13965 ft | 316 kts | 227° |
| 2026-05-05 19:01 | 51.48313 | -2.35141 | 13553 ft | 306 kts | 226° |
| 2026-05-05 19:02 | 51.46824 | -2.37536 | 12943 ft | 301 kts | 227° |
| 2026-05-05 19:02 | 51.45351 | -2.39907 | 12327 ft | 298 kts | 227° |
| 2026-05-05 19:02 | 51.43895 | -2.42252 | 11742 ft | 296 kts | 227° |
| 2026-05-05 19:02 | 51.42480 | -2.44571 | 11301 ft | 290 kts | 230° |
| 2026-05-05 19:03 | 51.41350 | -2.47217 | 11027 ft | 286 kts | 245° |
| 2026-05-05 19:03 | 51.40781 | -2.50230 | 10979 ft | 281 kts | 263° |
| 2026-05-05 19:03 | 51.40575 | -2.53371 | 11002 ft | 286 kts | 268° |
| 2026-05-05 19:03 | 51.40471 | -2.56532 | 11006 ft | 285 kts | 269° |
| 2026-05-05 19:04 | 51.40396 | -2.59717 | 10998 ft | 285 kts | 269° |
| 2026-05-05 19:04 | 51.40329 | -2.62904 | 11005 ft | 287 kts | 270° |
| 2026-05-05 19:04 | 51.40264 | -2.66055 | 10827 ft | 278 kts | 269° |
| 2026-05-05 19:04 | 51.40199 | -2.69149 | 10553 ft | 277 kts | 269° |
| 2026-05-05 19:05 | 51.40133 | -2.72256 | 10539 ft | 284 kts | 270° |
| 2026-05-05 19:05 | 51.40065 | -2.75433 | 10237 ft | 286 kts | 270° |
| 2026-05-05 19:05 | 51.39998 | -2.78615 | 9868 ft | 285 kts | 270° |
| 2026-05-05 19:05 | 51.39928 | -2.81718 | 9467 ft | 280 kts | 270° |
| 2026-05-05 19:06 | 51.39862 | -2.84826 | 9062 ft | 280 kts | 270° |
| 2026-05-05 19:06 | 51.39789 | -2.87946 | 8672 ft | 280 kts | 269° |
| 2026-05-05 19:06 | 51.39716 | -2.91048 | 8287 ft | 278 kts | 270° |
| 2026-05-05 19:06 | 51.39649 | -2.94134 | 7910 ft | 276 kts | 270° |
| 2026-05-05 19:07 | 51.39603 | -2.97203 | 7528 ft | 274 kts | 271° |
| 2026-05-05 19:07 | 51.39567 | -3.00251 | 7154 ft | 273 kts | 271° |
| 2026-05-05 19:07 | 51.39531 | -3.03289 | 6788 ft | 272 kts | 271° |
| 2026-05-05 19:07 | 51.39496 | -3.06319 | 6363 ft | 272 kts | 271° |
| 2026-05-05 19:08 | 51.39461 | -3.09335 | 5832 ft | 268 kts | 271° |
| 2026-05-05 19:08 | 51.39425 | -3.12270 | 5307 ft | 257 kts | 271° |
| 2026-05-05 19:08 | 51.39391 | -3.15036 | 4773 ft | 247 kts | 271° |
| 2026-05-05 19:08 | 51.39413 | -3.17718 | 4201 ft | 233 kts | 280° |
| 2026-05-05 19:09 | 51.39950 | -3.20161 | 3490 ft | 235 kts | 297° |
| 2026-05-05 19:09 | 51.40662 | -3.22525 | 2988 ft | 234 kts | 299° |
| 2026-05-05 19:09 | 51.41371 | -3.24788 | 2777 ft | 221 kts | 300° |
| 2026-05-05 19:09 | 51.42059 | -3.26972 | 2670 ft | 215 kts | 300° |
| 2026-05-05 19:10 | 51.42711 | -3.29044 | 2563 ft | 198 kts | 300° |
| 2026-05-05 19:10 | 51.43318 | -3.30976 | 2421 ft | 192 kts | 300° |
| 2026-05-05 19:10 | 51.43913 | -3.32859 | 2281 ft | 188 kts | 300° |
| 2026-05-05 19:10 | 51.44503 | -3.34727 | 2141 ft | 187 kts | 300° |
| 2026-05-05 19:11 | 51.45084 | -3.36570 | 2000 ft | 180 kts | 300° |
| 2026-05-05 19:11 | 51.45630 | -3.38310 | 1853 ft | 168 kts | 301° |
| 2026-05-05 19:11 | 51.46147 | -3.39955 | 1749 ft | 158 kts | 301° |
| 2026-05-05 19:11 | 51.46601 | -3.41411 | 1682 ft | 138 kts | 302° |
| 2026-05-05 19:12 | 51.47021 | -3.42753 | 1703 ft | 135 kts | 303° |
| 2026-05-05 19:12 | 51.47273 | -3.44220 | 1578 ft | 146 kts | 275° |
| 2026-05-05 19:12 | 51.46691 | -3.45579 | 1399 ft | 158 kts | 220° |
| 2026-05-05 19:12 | 51.45707 | -3.46279 | 1478 ft | 157 kts | 200° |
| 2026-05-05 19:13 | 51.44603 | -3.46029 | 1454 ft | 159 kts | 160° |
| 2026-05-05 19:13 | 51.43591 | -3.45353 | 1573 ft | 161 kts | 151° |
| 2026-05-05 19:13 | 51.42797 | -3.44137 | 1500 ft | 156 kts | 124° |
| 2026-05-05 19:13 | 51.42285 | -3.42621 | 1233 ft | 149 kts | 112° |
| 2026-05-05 19:14 | 51.41811 | -3.41175 | 1024 ft | 143 kts | 110° |
| 2026-05-05 19:14 | 51.41376 | -3.39791 | 830 ft | 138 kts | 112° |
| 2026-05-05 19:14 | 51.40958 | -3.38439 | 643 ft | 132 kts | 113° |
| 2026-05-05 19:14 | 51.40555 | -3.37156 | 471 ft | 132 kts | 113° |
| 2026-05-05 19:15 | 51.40138 | -3.35843 | 305 ft | 132 kts | 113° |
| 2026-05-05 19:15 | 51.39743 | -3.34584 | 228 ft | 113 kts | 116° |
| 2026-05-05 19:15 | 51.39460 | -3.33698 | 229 ft | 61 kts | 116° |
| 2026-05-05 19:15 | 51.39324 | -3.33260 | 228 ft | 22 kts | 117° |
| 2026-05-05 19:16 | 51.39299 | -3.33148 | 228 ft | 8 kts | 83° |
| 2026-05-05 19:16 | 51.39329 | -3.33092 | 228 ft | 10 kts | 35° |
| 2026-05-05 19:16 | 51.39404 | -3.33039 | 226 ft | 12 kts | 1° |
| 2026-05-05 19:16 | 51.39441 | -3.33071 | 227 ft | 7 kts | 316° |
| 2026-05-05 19:17 | 51.39479 | -3.33168 | 227 ft | 12 kts | 294° |
| 2026-05-05 19:17 | 51.39522 | -3.33303 | 226 ft | 16 kts | 297° |
| 2026-05-05 19:17 | 51.39581 | -3.33489 | 228 ft | 21 kts | 297° |
| 2026-05-05 19:17 | 51.39652 | -3.33710 | 227 ft | 25 kts | 297° |
| 2026-05-05 19:18 | 51.39730 | -3.33959 | 226 ft | 23 kts | 296° |
| 2026-05-05 19:18 | 51.39804 | -3.34194 | 230 ft | 24 kts | 297° |
| 2026-05-05 19:18 | 51.39882 | -3.34443 | 231 ft | 22 kts | 296° |
| 2026-05-05 19:18 | 51.39924 | -3.34577 | 231 ft | 10 kts | 299° |
| 2026-05-05 19:19 | 51.39959 | -3.34609 | 229 ft | 4 kts | 358° |
| 2026-05-05 19:19 | 51.39991 | -3.34595 | 230 ft | 6 kts | 23° |
| 2026-05-05 19:19 | 51.40064 | -3.34543 | 235 ft | 14 kts | 26° |
| 2026-05-05 19:19 | 51.40156 | -3.34467 | 234 ft | 17 kts | 28° |
| 2026-05-05 19:20 | 51.40250 | -3.34390 | 226 ft | 10 kts | 26° |
| 2026-05-05 19:20 | 51.40290 | -3.34360 | 227 ft | 0 kts | 26° |